Felix-Klein-Gymnasium, Gttingen, 150m NN
Donnes mto: Actuelle Freitag, 15.12.2017 20:30
Date Horaire Temp. E. Hum. E. P.atmo. Pluie Vent Direction Direction Ensoleilleme P. de rose Temp au vent Rafales
15.12.2017 20:30 -0,3 C 93 % 998,4 hPa 0,0 mm 0,6 km/h (0 Bft) S-SE 162 0 min -1,3 C -0,3 C 3,2 km/h (1 Bft)
15.12.2017 20:15 -0,2 C 92 % 998,3 hPa 0,0 mm 0,0 km/h (0 Bft) S-SE 162 0 min -1,3 C -0,2 C 0,0 km/h (0 Bft)
15.12.2017 20:00 -0,1 C 92 % 998,1 hPa 0,0 mm 0,1 km/h (0 Bft) S-SE 162 0 min -1,2 C -0,1 C 1,6 km/h (1 Bft)
15.12.2017 19:45 0,1 C 91 % 997,9 hPa 0,0 mm 1,4 km/h (1 Bft) S-SE 162 0 min -1,2 C 0,1 C 4,8 km/h (1 Bft)
15.12.2017 19:30 0,4 C 91 % 997,8 hPa 0,0 mm 0,5 km/h (0 Bft) S-SE 162 0 min -0,9 C 0,4 C 3,2 km/h (1 Bft)
15.12.2017 19:15 0,6 C 91 % 997,6 hPa 0,0 mm 0,9 km/h (0 Bft) S-SE 162 0 min -0,7 C 0,6 C 4,8 km/h (1 Bft)
15.12.2017 19:00 0,9 C 90 % 997,5 hPa 0,0 mm 1,0 km/h (0 Bft) S-SE 162 0 min -0,6 C 0,9 C 4,8 km/h (1 Bft)
15.12.2017 18:45 1,2 C 89 % 997,4 hPa 0,0 mm 0,0 km/h (0 Bft) S-SE 162 0 min -0,4 C 1,2 C 1,6 km/h (1 Bft)
15.12.2017 18:30 1,4 C 89 % 997,1 hPa 0,0 mm 0,0 km/h (0 Bft) S-SE 162 0 min -0,2 C 1,4 C 0,0 km/h (0 Bft)
15.12.2017 18:15 1,7 C 88 % 997,0 hPa 0,0 mm 0,0 km/h (0 Bft) S-SE 162 0 min -0,1 C 1,7 C 0,0 km/h (0 Bft)
15.12.2017 18:00 1,8 C 88 % 996,8 hPa 0,0 mm 0,0 km/h (0 Bft) S-SE 162 0 min 0,0 C 1,8 C 1,6 km/h (1 Bft)
15.12.2017 17:45 2,1 C 87 % 996,7 hPa 0,0 mm 0,5 km/h (0 Bft) S-SE 162 0 min 0,2 C 2,1 C 3,2 km/h (1 Bft)
15.12.2017 17:30 2,2 C 86 % 996,5 hPa 0,0 mm 0,4 km/h (0 Bft) S-SE 162 0 min 0,1 C 2,2 C 3,2 km/h (1 Bft)
15.12.2017 17:15 2,6 C 85 % 996,4 hPa 0,0 mm 0,0 km/h (0 Bft) S-SE 162 0 min 0,3 C 2,6 C 1,6 km/h (1 Bft)
15.12.2017 17:00 2,7 C 85 % 996,2 hPa 0,0 mm 0,9 km/h (0 Bft) S-SE 162 0 min 0,4 C 2,7 C 3,2 km/h (1 Bft)
15.12.2017 16:45 2,8 C 84 % 996,0 hPa 0,0 mm 0,4 km/h (0 Bft) S-SE 162 0 min 0,4 C 2,8 C 4,8 km/h (1 Bft)
15.12.2017 16:30 2,9 C 84 % 995,9 hPa 0,0 mm 3,8 km/h (1 Bft) S-SE 162 0 min 0,5 C 2,9 C 6,4 km/h (2 Bft)
15.12.2017 16:15 3,1 C 83 % 995,8 hPa 0,0 mm 2,9 km/h (1 Bft) S-SE 163 0 min 0,5 C 3,1 C 6,4 km/h (2 Bft)
15.12.2017 16:00 3,3 C 83 % 995,6 hPa 0,0 mm 2,2 km/h (1 Bft) S-SE 165 0 min 0,7 C 3,3 C 6,4 km/h (2 Bft)
15.12.2017 15:45 3,4 C 83 % 995,5 hPa 0,0 mm 3,8 km/h (1 Bft) S 172 0 min 0,8 C 3,4 C 11,3 km/h (2 Bft)
15.12.2017 15:30 3,6 C 83 % 995,3 hPa 0,0 mm 6,0 km/h (2 Bft) S-SE 159 0 min 1,0 C 2,1 C 14,5 km/h (3 Bft)
15.12.2017 15:15 3,7 C 82 % 995,2 hPa 0,0 mm 3,9 km/h (1 Bft) S 181 0 min 0,9 C 3,7 C 9,7 km/h (2 Bft)
15.12.2017 15:00 3,9 C 82 % 995,0 hPa 0,0 mm 5,5 km/h (1 Bft) SE 146 0 min 1,1 C 2,6 C 11,3 km/h (2 Bft)
15.12.2017 14:45 4,0 C 81 % 994,8 hPa 0,0 mm 4,0 km/h (1 Bft) S-SE 161 0 min 1,0 C 4,0 C 9,7 km/h (2 Bft)
15.12.2017 14:30 4,1 C 81 % 994,6 hPa 0,0 mm 2,1 km/h (1 Bft) SE 130 0 min 1,1 C 4,1 C 8,0 km/h (2 Bft)
15.12.2017 14:15 3,9 C 82 % 994,7 hPa 0,0 mm 1,9 km/h (1 Bft) S-SE 154 0 min 1,1 C 3,9 C 8,0 km/h (2 Bft)
15.12.2017 14:00 3,9 C 82 % 994,6 hPa 0,0 mm 3,5 km/h (1 Bft) S-SE 166 15 min 1,1 C 3,9 C 12,9 km/h (3 Bft)
15.12.2017 13:45 3,8 C 82 % 994,7 hPa 0,0 mm 6,5 km/h (2 Bft) SO 229 0 min 1,0 C 2,2 C 16,1 km/h (3 Bft)
15.12.2017 13:30 3,8 C 81 % 994,7 hPa 0,0 mm 8,5 km/h (2 Bft) SO 222 0 min 0,8 C 1,6 C 24,1 km/h (4 Bft)
15.12.2017 13:15 4,1 C 82 % 994,6 hPa 0,0 mm 7,4 km/h (2 Bft) SO 229 0 min 1,3 C 2,2 C 19,3 km/h (3 Bft)
15.12.2017 13:00 4,3 C 82 % 994,6 hPa 0,0 mm 8,0 km/h (2 Bft) SO 219 0 min 1,5 C 2,3 C 16,1 km/h (3 Bft)
15.12.2017 12:45 4,3 C 81 % 994,5 hPa 0,0 mm 8,2 km/h (2 Bft) S-SO 200 15 min 1,3 C 2,3 C 20,9 km/h (4 Bft)
15.12.2017 12:30 3,9 C 84 % 994,4 hPa 0,0 mm 7,1 km/h (2 Bft) S 191 15 min 1,4 C 2,1 C 17,7 km/h (3 Bft)
15.12.2017 12:15 3,3 C 85 % 994,6 hPa 0,0 mm 8,4 km/h (2 Bft) S-SO 201 15 min 1,0 C 1,0 C 20,9 km/h (4 Bft)
15.12.2017 12:00 3,3 C 85 % 994,8 hPa 0,0 mm 10,6 km/h (2 Bft) SO 225 0 min 1,0 C 0,5 C 24,1 km/h (4 Bft)
15.12.2017 11:45 3,1 C 87 % 994,6 hPa 0,0 mm 7,8 km/h (2 Bft) SE 142 15 min 1,2 C 1,0 C 19,3 km/h (3 Bft)
15.12.2017 11:30 2,9 C 88 % 994,8 hPa 0,0 mm 7,8 km/h (2 Bft) S-SO 196 0 min 1,1 C 0,7 C 17,7 km/h (3 Bft)
15.12.2017 11:15 2,8 C 87 % 994,7 hPa 0,0 mm 7,2 km/h (2 Bft) S-SO 199 0 min 0,9 C 0,8 C 14,5 km/h (3 Bft)
15.12.2017 11:00 2,8 C 87 % 994,7 hPa 0,0 mm 8,0 km/h (2 Bft) SO 225 0 min 0,9 C 0,6 C 16,1 km/h (3 Bft)
15.12.2017 10:45 3,1 C 88 % 994,5 hPa 0,0 mm 5,6 km/h (1 Bft) S 176 0 min 1,3 C 1,7 C 14,5 km/h (3 Bft)
15.12.2017 10:30 3,1 C 89 % 994,4 hPa 0,0 mm 5,1 km/h (1 Bft) S-SO 212 15 min 1,5 C 1,9 C 11,3 km/h (2 Bft)
15.12.2017 10:15 2,8 C 91 % 994,2 hPa 0,0 mm 1,3 km/h (1 Bft) S-SE 156 15 min 1,5 C 2,8 C 8,0 km/h (2 Bft)
15.12.2017 10:00 2,7 C 92 % 993,9 hPa 0,0 mm 1,5 km/h (1 Bft) S-SE 156 0 min 1,5 C 2,7 C 8,0 km/h (2 Bft)
15.12.2017 09:45 2,3 C 92 % 993,6 hPa 0,0 mm 0,3 km/h (0 Bft) SE 143 0 min 1,1 C 2,3 C 3,2 km/h (1 Bft)
15.12.2017 09:30 1,9 C 92 % 993,3 hPa 0,0 mm 3,2 km/h (1 Bft) SE 143 0 min 0,7 C 1,9 C 9,7 km/h (2 Bft)
15.12.2017 09:15 1,9 C 92 % 993,1 hPa 0,0 mm 3,3 km/h (1 Bft) SE 130 0 min 0,7 C 1,9 C 11,3 km/h (2 Bft)
15.12.2017 09:00 2,0 C 91 % 992,9 hPa 0,0 mm 0,7 km/h (0 Bft) N-NO 329 0 min 0,7 C 2,0 C 4,8 km/h (1 Bft)
15.12.2017 08:45 1,9 C 91 % 992,7 hPa 0,0 mm 0,3 km/h (0 Bft) N-NO 329 0 min 0,6 C 1,9 C 4,8 km/h (1 Bft)
15.12.2017 08:30 2,1 C 90 % 992,5 hPa 0,0 mm 0,3 km/h (0 Bft) N-NO 328 0 min 0,6 C 2,1 C 4,8 km/h (1 Bft)
15.12.2017 08:15 2,1 C 90 % 992,3 hPa 0,0 mm 0,0 km/h (0 Bft) N-NO 329 0 min 0,6 C 2,1 C 1,6 km/h (1 Bft)
15.12.2017 08:00 2,2 C 89 % 992,2 hPa 0,0 mm 0,4 km/h (0 Bft) NO 326 0 min 0,6 C 2,2 C 3,2 km/h (1 Bft)
15.12.2017 07:45 2,3 C 89 % 992,1 hPa 0,0 mm 0,7 km/h (0 Bft) O 268 0 min 0,7 C 2,3 C 9,7 km/h (2 Bft)
15.12.2017 07:30 2,4 C 89 % 991,8 hPa 0,0 mm 2,5 km/h (1 Bft) O 268 0 min 0,8 C 2,4 C 12,9 km/h (3 Bft)
15.12.2017 07:15 2,4 C 89 % 991,7 hPa 0,0 mm 0,9 km/h (0 Bft) O 267 0 min 0,8 C 2,4 C 6,4 km/h (2 Bft)
15.12.2017 07:00 2,4 C 89 % 991,4 hPa 0,0 mm 5,4 km/h (1 Bft) O 266 0 min 0,8 C 1,0 C 12,9 km/h (3 Bft)
15.12.2017 06:45 2,4 C 90 % 991,0 hPa 0,0 mm 8,4 km/h (2 Bft) O 275 0 min 0,9 C -0,0 C 17,7 km/h (3 Bft)
15.12.2017 06:30 2,3 C 92 % 991,0 hPa 0,0 mm 7,9 km/h (2 Bft) O 281 0 min 1,1 C -0,0 C 16,1 km/h (3 Bft)
15.12.2017 06:15 2,3 C 93 % 990,8 hPa 0,0 mm 6,8 km/h (2 Bft) O 276 0 min 1,3 C 0,3 C 12,9 km/h (3 Bft)
15.12.2017 06:00 2,1 C 94 % 990,6 hPa 0,0 mm 3,2 km/h (1 Bft) SE 139 0 min 1,2 C 2,1 C 3,2 km/h (1 Bft)
15.12.2017 05:45 2,1 C 94 % 990,3 hPa 0,0 mm 3,2 km/h (1 Bft) SE 139 0 min 1,2 C 2,1 C 3,2 km/h (1 Bft)
15.12.2017 05:30 2,1 C 94 % 990,1 hPa 0,0 mm 3,2 km/h (1 Bft) SE 139 0 min 1,2 C 2,1 C 3,2 km/h (1 Bft)
15.12.2017 05:15 2,1 C 94 % 990,0 hPa 0,0 mm 3,2 km/h (1 Bft) SE 139 0 min 1,2 C 2,1 C 3,2 km/h (1 Bft)
15.12.2017 05:00 2,1 C 94 % 989,7 hPa 0,0 mm 3,2 km/h (1 Bft) SE 139 0 min 1,2 C 2,1 C 3,2 km/h (1 Bft)
15.12.2017 04:45 2,1 C 94 % 989,5 hPa 0,0 mm 3,2 km/h (1 Bft) SE 139 0 min 1,2 C 2,1 C 3,2 km/h (1 Bft)
15.12.2017 04:30 2,1 C 94 % 989,3 hPa 0,0 mm 3,2 km/h (1 Bft) SE 139 0 min 1,2 C 2,1 C 3,2 km/h (1 Bft)
15.12.2017 04:15 2,1 C 94 % 989,2 hPa 0,0 mm 3,2 km/h (1 Bft) SE 139 0 min 1,2 C 2,1 C 3,2 km/h (1 Bft)
15.12.2017 04:00 2,1 C 94 % 989,0 hPa 0,0 mm 5,9 km/h (2 Bft) SE 138 0 min 1,2 C 0,4 C 11,3 km/h (2 Bft)
15.12.2017 03:45 2,0 C 94 % 988,9 hPa 0,0 mm 5,3 km/h (1 Bft) S-SE 159 0 min 1,1 C 0,6 C 12,9 km/h (3 Bft)
15.12.2017 03:30 1,9 C 94 % 989,0 hPa 0,0 mm 4,3 km/h (1 Bft) SE 141 0 min 1,0 C 1,9 C 8,0 km/h (2 Bft)
15.12.2017 03:15 1,8 C 94 % 989,1 hPa 0,0 mm 2,8 km/h (1 Bft) SE 133 0 min 0,9 C 1,8 C 6,4 km/h (2 Bft)
15.12.2017 03:00 1,8 C 93 % 988,9 hPa 0,0 mm 3,6 km/h (1 Bft) S-SE 147 0 min 0,8 C 1,8 C 8,0 km/h (2 Bft)
15.12.2017 02:45 1,8 C 93 % 988,9 hPa 0,0 mm 2,3 km/h (1 Bft) S-SE 155 0 min 0,8 C 1,8 C 8,0 km/h (2 Bft)
15.12.2017 02:30 1,9 C 93 % 988,7 hPa 0,0 mm 5,2 km/h (1 Bft) SE 134 0 min 0,9 C 0,5 C 14,5 km/h (3 Bft)
15.12.2017 02:15 2,3 C 93 % 988,6 hPa 0,0 mm 10,0 km/h (2 Bft) S-SE 168 0 min 1,3 C -0,6 C 20,9 km/h (4 Bft)
15.12.2017 02:00 2,6 C 93 % 988,8 hPa 0,0 mm 10,1 km/h (2 Bft) S 186 0 min 1,6 C -0,2 C 22,5 km/h (4 Bft)
15.12.2017 01:45 2,4 C 93 % 988,9 hPa 0,0 mm 5,1 km/h (1 Bft) SE 137 0 min 1,4 C 1,1 C 16,1 km/h (3 Bft)
15.12.2017 01:30 2,3 C 93 % 989,0 hPa 0,0 mm 4,3 km/h (1 Bft) S-SE 155 0 min 1,3 C 2,3 C 9,7 km/h (2 Bft)
15.12.2017 01:15 2,3 C 92 % 989,1 hPa 0,0 mm 5,1 km/h (1 Bft) S-SE 150 0 min 1,1 C 1,0 C 11,3 km/h (2 Bft)
15.12.2017 01:00 2,4 C 92 % 989,1 hPa 0,0 mm 7,9 km/h (2 Bft) S-SE 156 0 min 1,2 C 0,1 C 17,7 km/h (3 Bft)
15.12.2017 00:45 2,6 C 92 % 989,3 hPa 0,0 mm 10,1 km/h (2 Bft) S-SE 162 0 min 1,4 C -0,2 C 17,7 km/h (3 Bft)
15.12.2017 00:30 2,6 C 92 % 989,3 hPa 0,0 mm 8,3 km/h (2 Bft) S-SE 155 0 min 1,4 C 0,2 C 16,1 km/h (3 Bft)
15.12.2017 00:15 2,7 C 91 % 989,5 hPa 0,0 mm 8,5 km/h (2 Bft) S-SE 148 0 min 1,4 C 0,3 C 16,1 km/h (3 Bft)
15.12.2017 00:00 2,9 C 90 % 989,7 hPa 0,3 mm 11,0 km/h (2 Bft) SE 137 0 min 1,4 C -0,1 C 22,5 km/h (4 Bft)
14.12.2017 22:45 2,6 C 87 % 990,0 hPa 0,0 mm 4,9 km/h (1 Bft) E-SE 121 0 min 0,7 C 1,4 C 11,3 km/h (2 Bft)
14.12.2017 22:30 2,6 C 86 % 990,2 hPa 0,0 mm 3,2 km/h (1 Bft) S-SE 148 0 min 0,5 C 2,6 C 8,0 km/h (2 Bft)
14.12.2017 22:15 2,5 C 86 % 990,5 hPa 0,0 mm 3,3 km/h (1 Bft) SE 130 0 min 0,4 C 2,5 C 6,4 km/h (2 Bft)
14.12.2017 22:00 2,4 C 86 % 990,5 hPa 0,0 mm 2,4 km/h (1 Bft) SE 139 0 min 0,3 C 2,4 C 6,4 km/h (2 Bft)
14.12.2017 21:45 2,6 C 85 % 990,5 hPa 0,0 mm 2,5 km/h (1 Bft) SE 135 0 min 0,3 C 2,6 C 6,4 km/h (2 Bft)
14.12.2017 21:30 2,7 C 85 % 990,7 hPa 0,0 mm 2,4 km/h (1 Bft) S-SE 153 0 min 0,4 C 2,7 C 9,7 km/h (2 Bft)
14.12.2017 21:15 2,7 C 85 % 990,9 hPa 0,0 mm 4,6 km/h (1 Bft) S 179 0 min 0,4 C 1,7 C 16,1 km/h (3 Bft)
14.12.2017 21:00 2,3 C 86 % 990,9 hPa 0,0 mm 4,7 km/h (1 Bft) S 182 0 min 0,2 C 1,2 C 12,9 km/h (3 Bft)
_ Min-Heure 20:30 12:45 02:15 - 08:15 - - - 20:15 02:15 18:15
Minimum _ -0,3 C 81 % 988,6 hPa - 0,0 km/h (0 Bft) - - - -1,3 C -0,6 C 0,0 km/h (0 Bft)
_ Max-Heure 12:45 03:15 20:30 00:00 00:00 - - 10:15 02:00 14:30 12:00
Maximum _ 4,3 C 94 % 998,4 hPa 0,3 mm 11,0 km/h
SE (2 Bft)
- - 15 min 1,6 C 4,1 C 24,1 km/h
SO (4 Bft)
Moyenne _ 2,5 C 89 % 992,6 hPa #0,3 mm 4,3 km/h (1 Bft) SE - #1:45 h 0,7 C 1,6 C 10,5 km/h (2 Bft)